sensor_id;sensor_type;location;lat;lon;timestamp;P1;durP1;ratioP1;P2;durP2;ratioP2
11893;SDS011;6006;49.696;8.662;2022-12-18T00:00:57;23.40;;;12.17;;
11893;SDS011;6006;49.696;8.662;2022-12-18T00:03:24;22.20;;;13.77;;
11893;SDS011;6006;49.696;8.662;2022-12-18T00:05:53;22.67;;;12.87;;
11893;SDS011;6006;49.696;8.662;2022-12-18T00:08:21;18.07;;;11.87;;
11893;SDS011;6006;49.696;8.662;2022-12-18T00:10:48;18.83;;;11.67;;
11893;SDS011;6006;49.696;8.662;2022-12-18T00:13:15;17.73;;;11.33;;
11893;SDS011;6006;49.696;8.662;2022-12-18T00:15:43;19.47;;;10.43;;
11893;SDS011;6006;49.696;8.662;2022-12-18T00:18:10;16.00;;;9.83;;
11893;SDS011;6006;49.696;8.662;2022-12-18T00:20:37;17.90;;;9.27;;
11893;SDS011;6006;49.696;8.662;2022-12-18T00:23:07;16.00;;;8.93;;
11893;SDS011;6006;49.696;8.662;2022-12-18T00:25:34;13.07;;;8.20;;
11893;SDS011;6006;49.696;8.662;2022-12-18T00:28:02;14.13;;;8.87;;
11893;SDS011;6006;49.696;8.662;2022-12-18T00:30:29;13.93;;;9.37;;
11893;SDS011;6006;49.696;8.662;2022-12-18T00:32:56;14.63;;;9.63;;
11893;SDS011;6006;49.696;8.662;2022-12-18T00:35:24;19.00;;;11.57;;
11893;SDS011;6006;49.696;8.662;2022-12-18T00:37:51;21.37;;;10.57;;
11893;SDS011;6006;49.696;8.662;2022-12-18T00:40:20;17.97;;;11.03;;
11893;SDS011;6006;49.696;8.662;2022-12-18T00:42:47;20.17;;;12.73;;
11893;SDS011;6006;49.696;8.662;2022-12-18T00:45:25;21.90;;;11.00;;
11893;SDS011;6006;49.696;8.662;2022-12-18T00:47:54;16.37;;;9.97;;
11893;SDS011;6006;49.696;8.662;2022-12-18T00:50:22;17.93;;;12.10;;
11893;SDS011;6006;49.696;8.662;2022-12-18T00:52:51;19.27;;;11.33;;
11893;SDS011;6006;49.696;8.662;2022-12-18T00:55:19;18.97;;;10.80;;
11893;SDS011;6006;49.696;8.662;2022-12-18T00:57:46;18.67;;;10.47;;
11893;SDS011;6006;49.696;8.662;2022-12-18T01:00:14;21.50;;;12.03;;
11893;SDS011;6006;49.696;8.662;2022-12-18T01:02:41;17.27;;;10.70;;
11893;SDS011;6006;49.696;8.662;2022-12-18T01:05:08;20.90;;;11.37;;
11893;SDS011;6006;49.696;8.662;2022-12-18T01:07:36;18.00;;;10.77;;
11893;SDS011;6006;49.696;8.662;2022-12-18T01:10:04;16.40;;;10.83;;
11893;SDS011;6006;49.696;8.662;2022-12-18T01:12:33;20.57;;;11.83;;
11893;SDS011;6006;49.696;8.662;2022-12-18T01:15:00;23.60;;;11.67;;
11893;SDS011;6006;49.696;8.662;2022-12-18T01:17:27;18.30;;;11.03;;
11893;SDS011;6006;49.696;8.662;2022-12-18T01:19:54;21.10;;;11.10;;
11893;SDS011;6006;49.696;8.662;2022-12-18T01:22:21;19.77;;;11.03;;
11893;SDS011;6006;49.696;8.662;2022-12-18T01:24:48;20.63;;;10.57;;
11893;SDS011;6006;49.696;8.662;2022-12-18T01:27:15;18.67;;;9.90;;
11893;SDS011;6006;49.696;8.662;2022-12-18T01:29:44;16.83;;;10.67;;
11893;SDS011;6006;49.696;8.662;2022-12-18T01:32:11;15.37;;;9.43;;
11893;SDS011;6006;49.696;8.662;2022-12-18T01:34:38;18.93;;;10.13;;
11893;SDS011;6006;49.696;8.662;2022-12-18T01:37:05;19.87;;;10.00;;
11893;SDS011;6006;49.696;8.662;2022-12-18T01:39:32;18.70;;;10.60;;
11893;SDS011;6006;49.696;8.662;2022-12-18T01:41:59;15.43;;;8.90;;
11893;SDS011;6006;49.696;8.662;2022-12-18T01:47:33;14.57;;;9.10;;
11893;SDS011;6006;49.696;8.662;2022-12-18T01:50:06;13.00;;;8.87;;
11893;SDS011;6006;49.696;8.662;2022-12-18T01:52:35;18.90;;;9.70;;
11893;SDS011;6006;49.696;8.662;2022-12-18T01:55:04;15.37;;;8.37;;
11893;SDS011;6006;49.696;8.662;2022-12-18T01:57:32;13.50;;;8.93;;
11893;SDS011;6006;49.696;8.662;2022-12-18T02:00:00;16.37;;;9.40;;
11893;SDS011;6006;49.696;8.662;2022-12-18T02:02:32;17.93;;;9.67;;
11893;SDS011;6006;49.696;8.662;2022-12-18T02:04:59;15.20;;;8.80;;
11893;SDS011;6006;49.696;8.662;2022-12-18T02:07:30;13.13;;;9.43;;
11893;SDS011;6006;49.696;8.662;2022-12-18T02:10:05;14.47;;;8.40;;
11893;SDS011;6006;49.696;8.662;2022-12-18T02:12:40;13.77;;;8.33;;
11893;SDS011;6006;49.696;8.662;2022-12-18T02:15:13;16.00;;;8.50;;
11893;SDS011;6006;49.696;8.662;2022-12-18T02:17:47;16.90;;;8.77;;
11893;SDS011;6006;49.696;8.662;2022-12-18T02:20:20;10.80;;;7.13;;
11893;SDS011;6006;49.696;8.662;2022-12-18T02:22:57;15.00;;;7.60;;
11893;SDS011;6006;49.696;8.662;2022-12-18T02:25:38;11.30;;;7.53;;
11893;SDS011;6006;49.696;8.662;2022-12-18T02:28:13;12.23;;;7.17;;
11893;SDS011;6006;49.696;8.662;2022-12-18T02:30:44;12.50;;;8.00;;
11893;SDS011;6006;49.696;8.662;2022-12-18T02:33:13;10.77;;;7.17;;
11893;SDS011;6006;49.696;8.662;2022-12-18T02:35:41;12.43;;;6.80;;
11893;SDS011;6006;49.696;8.662;2022-12-18T02:38:10;11.53;;;7.33;;
11893;SDS011;6006;49.696;8.662;2022-12-18T02:40:38;10.60;;;7.10;;
11893;SDS011;6006;49.696;8.662;2022-12-18T02:43:08;12.27;;;7.97;;
11893;SDS011;6006;49.696;8.662;2022-12-18T02:45:47;11.37;;;7.77;;
11893;SDS011;6006;49.696;8.662;2022-12-18T02:48:16;13.00;;;7.53;;
11893;SDS011;6006;49.696;8.662;2022-12-18T02:50:45;14.23;;;8.73;;
11893;SDS011;6006;49.696;8.662;2022-12-18T02:53:19;12.97;;;7.47;;
11893;SDS011;6006;49.696;8.662;2022-12-18T02:55:55;11.17;;;7.33;;
11893;SDS011;6006;49.696;8.662;2022-12-18T02:58:30;12.33;;;7.40;;
11893;SDS011;6006;49.696;8.662;2022-12-18T03:01:06;13.87;;;7.33;;
11893;SDS011;6006;49.696;8.662;2022-12-18T03:03:39;12.73;;;8.40;;
11893;SDS011;6006;49.696;8.662;2022-12-18T03:06:10;13.50;;;8.13;;
11893;SDS011;6006;49.696;8.662;2022-12-18T03:08:41;12.03;;;7.90;;
11893;SDS011;6006;49.696;8.662;2022-12-18T03:11:12;14.80;;;9.10;;
11893;SDS011;6006;49.696;8.662;2022-12-18T03:13:42;17.43;;;9.50;;
11893;SDS011;6006;49.696;8.662;2022-12-18T03:16:14;14.43;;;8.70;;
11893;SDS011;6006;49.696;8.662;2022-12-18T03:18:45;14.17;;;8.73;;
11893;SDS011;6006;49.696;8.662;2022-12-18T03:21:14;12.87;;;7.47;;
11893;SDS011;6006;49.696;8.662;2022-12-18T03:23:47;11.70;;;7.73;;
11893;SDS011;6006;49.696;8.662;2022-12-18T03:26:17;14.47;;;7.87;;
11893;SDS011;6006;49.696;8.662;2022-12-18T03:28:49;12.80;;;8.03;;
11893;SDS011;6006;49.696;8.662;2022-12-18T03:31:20;15.20;;;9.07;;
11893;SDS011;6006;49.696;8.662;2022-12-18T03:33:51;12.57;;;7.87;;
11893;SDS011;6006;49.696;8.662;2022-12-18T03:36:19;13.17;;;7.43;;
11893;SDS011;6006;49.696;8.662;2022-12-18T03:38:46;11.17;;;7.57;;
11893;SDS011;6006;49.696;8.662;2022-12-18T03:41:15;13.03;;;8.13;;
11893;SDS011;6006;49.696;8.662;2022-12-18T03:43:48;9.90;;;6.70;;
11893;SDS011;6006;49.696;8.662;2022-12-18T03:46:24;12.57;;;7.93;;
11893;SDS011;6006;49.696;8.662;2022-12-18T03:48:56;11.13;;;7.27;;
11893;SDS011;6006;49.696;8.662;2022-12-18T03:51:29;14.00;;;7.87;;
11893;SDS011;6006;49.696;8.662;2022-12-18T03:54:04;10.47;;;6.30;;
11893;SDS011;6006;49.696;8.662;2022-12-18T03:56:35;10.53;;;6.67;;
11893;SDS011;6006;49.696;8.662;2022-12-18T03:59:05;7.83;;;6.57;;
11893;SDS011;6006;49.696;8.662;2022-12-18T04:01:37;13.57;;;6.90;;
11893;SDS011;6006;49.696;8.662;2022-12-18T04:04:07;10.03;;;6.83;;
11893;SDS011;6006;49.696;8.662;2022-12-18T04:06:36;12.63;;;6.87;;
11893;SDS011;6006;49.696;8.662;2022-12-18T04:09:04;13.87;;;8.10;;
11893;SDS011;6006;49.696;8.662;2022-12-18T04:11:32;12.33;;;6.70;;
11893;SDS011;6006;49.696;8.662;2022-12-18T04:13:59;13.40;;;7.30;;
11893;SDS011;6006;49.696;8.662;2022-12-18T04:16:26;10.27;;;7.43;;
11893;SDS011;6006;49.696;8.662;2022-12-18T04:18:55;10.57;;;6.63;;
11893;SDS011;6006;49.696;8.662;2022-12-18T04:21:22;13.77;;;7.13;;
11893;SDS011;6006;49.696;8.662;2022-12-18T04:23:49;12.53;;;7.83;;
11893;SDS011;6006;49.696;8.662;2022-12-18T04:26:16;11.53;;;7.20;;
11893;SDS011;6006;49.696;8.662;2022-12-18T04:28:43;9.40;;;6.03;;
11893;SDS011;6006;49.696;8.662;2022-12-18T04:31:10;9.77;;;6.87;;
11893;SDS011;6006;49.696;8.662;2022-12-18T04:33:37;11.00;;;7.00;;
11893;SDS011;6006;49.696;8.662;2022-12-18T04:36:06;11.70;;;6.27;;
11893;SDS011;6006;49.696;8.662;2022-12-18T04:38:34;9.57;;;6.63;;
11893;SDS011;6006;49.696;8.662;2022-12-18T04:41:01;11.87;;;6.80;;
11893;SDS011;6006;49.696;8.662;2022-12-18T04:43:28;12.07;;;7.57;;
11893;SDS011;6006;49.696;8.662;2022-12-18T04:46:00;9.03;;;6.50;;
11893;SDS011;6006;49.696;8.662;2022-12-18T04:48:28;11.63;;;6.77;;
11893;SDS011;6006;49.696;8.662;2022-12-18T04:50:55;10.97;;;6.10;;
11893;SDS011;6006;49.696;8.662;2022-12-18T04:53:23;8.13;;;6.07;;
11893;SDS011;6006;49.696;8.662;2022-12-18T04:55:51;10.70;;;6.67;;
11893;SDS011;6006;49.696;8.662;2022-12-18T04:58:28;11.23;;;6.33;;
11893;SDS011;6006;49.696;8.662;2022-12-18T05:00:55;11.00;;;6.93;;
11893;SDS011;6006;49.696;8.662;2022-12-18T05:03:22;10.80;;;6.70;;
11893;SDS011;6006;49.696;8.662;2022-12-18T05:05:49;9.30;;;6.37;;
11893;SDS011;6006;49.696;8.662;2022-12-18T05:08:16;11.37;;;6.60;;
11893;SDS011;6006;49.696;8.662;2022-12-18T05:10:46;13.57;;;7.57;;
11893;SDS011;6006;49.696;8.662;2022-12-18T05:13:13;8.57;;;6.10;;
11893;SDS011;6006;49.696;8.662;2022-12-18T05:15:40;8.10;;;6.27;;
11893;SDS011;6006;49.696;8.662;2022-12-18T05:18:07;9.83;;;6.47;;
11893;SDS011;6006;49.696;8.662;2022-12-18T05:20:35;8.23;;;6.30;;
11893;SDS011;6006;49.696;8.662;2022-12-18T05:23:02;10.60;;;6.37;;
11893;SDS011;6006;49.696;8.662;2022-12-18T05:25:29;10.23;;;7.23;;
11893;SDS011;6006;49.696;8.662;2022-12-18T05:27:57;8.73;;;6.47;;
11893;SDS011;6006;49.696;8.662;2022-12-18T05:30:24;11.60;;;6.87;;
11893;SDS011;6006;49.696;8.662;2022-12-18T05:32:51;8.50;;;5.77;;
11893;SDS011;6006;49.696;8.662;2022-12-18T05:35:18;8.27;;;6.30;;
11893;SDS011;6006;49.696;8.662;2022-12-18T05:37:45;12.03;;;6.67;;
11893;SDS011;6006;49.696;8.662;2022-12-18T05:40:12;11.30;;;6.23;;
11893;SDS011;6006;49.696;8.662;2022-12-18T05:42:39;12.87;;;6.00;;
11893;SDS011;6006;49.696;8.662;2022-12-18T05:45:08;13.10;;;7.57;;
11893;SDS011;6006;49.696;8.662;2022-12-18T05:47:35;9.90;;;6.70;;
11893;SDS011;6006;49.696;8.662;2022-12-18T05:50:02;11.00;;;6.30;;
11893;SDS011;6006;49.696;8.662;2022-12-18T05:52:30;11.87;;;7.10;;
11893;SDS011;6006;49.696;8.662;2022-12-18T05:54:57;9.67;;;6.43;;
11893;SDS011;6006;49.696;8.662;2022-12-18T05:57:25;10.40;;;6.80;;
11893;SDS011;6006;49.696;8.662;2022-12-18T05:59:52;14.23;;;6.50;;
11893;SDS011;6006;49.696;8.662;2022-12-18T06:02:20;11.47;;;6.50;;
11893;SDS011;6006;49.696;8.662;2022-12-18T06:04:47;8.93;;;5.83;;
11893;SDS011;6006;49.696;8.662;2022-12-18T06:07:14;10.33;;;6.33;;
11893;SDS011;6006;49.696;8.662;2022-12-18T06:09:41;11.40;;;5.80;;
11893;SDS011;6006;49.696;8.662;2022-12-18T06:12:08;12.70;;;6.83;;
11893;SDS011;6006;49.696;8.662;2022-12-18T06:14:36;10.10;;;6.63;;
11893;SDS011;6006;49.696;8.662;2022-12-18T06:17:03;11.83;;;6.83;;
11893;SDS011;6006;49.696;8.662;2022-12-18T06:19:31;8.33;;;5.83;;
11893;SDS011;6006;49.696;8.662;2022-12-18T06:21:58;11.40;;;6.70;;
11893;SDS011;6006;49.696;8.662;2022-12-18T06:24:28;11.83;;;6.90;;
11893;SDS011;6006;49.696;8.662;2022-12-18T06:26:59;11.13;;;7.10;;
11893;SDS011;6006;49.696;8.662;2022-12-18T06:29:28;12.20;;;6.73;;
11893;SDS011;6006;49.696;8.662;2022-12-18T06:31:55;10.47;;;6.73;;
11893;SDS011;6006;49.696;8.662;2022-12-18T06:34:22;12.20;;;6.47;;
11893;SDS011;6006;49.696;8.662;2022-12-18T06:36:51;11.50;;;6.57;;
11893;SDS011;6006;49.696;8.662;2022-12-18T06:39:18;8.40;;;6.40;;
11893;SDS011;6006;49.696;8.662;2022-12-18T06:41:45;11.77;;;6.57;;
11893;SDS011;6006;49.696;8.662;2022-12-18T06:44:12;10.30;;;6.90;;
11893;SDS011;6006;49.696;8.662;2022-12-18T06:46:39;9.43;;;5.83;;
11893;SDS011;6006;49.696;8.662;2022-12-18T06:49:06;11.73;;;5.67;;
11893;SDS011;6006;49.696;8.662;2022-12-18T06:51:34;8.43;;;5.70;;
11893;SDS011;6006;49.696;8.662;2022-12-18T06:54:02;11.00;;;7.20;;
11893;SDS011;6006;49.696;8.662;2022-12-18T06:56:30;14.47;;;6.90;;
11893;SDS011;6006;49.696;8.662;2022-12-18T06:58:56;10.10;;;6.30;;
11893;SDS011;6006;49.696;8.662;2022-12-18T07:01:23;10.30;;;6.47;;
11893;SDS011;6006;49.696;8.662;2022-12-18T07:03:51;8.83;;;5.80;;
11893;SDS011;6006;49.696;8.662;2022-12-18T07:06:20;9.50;;;5.63;;
11893;SDS011;6006;49.696;8.662;2022-12-18T07:08:48;10.10;;;6.33;;
11893;SDS011;6006;49.696;8.662;2022-12-18T07:11:17;12.50;;;7.13;;
11893;SDS011;6006;49.696;8.662;2022-12-18T07:13:45;9.13;;;6.13;;
11893;SDS011;6006;49.696;8.662;2022-12-18T07:16:13;12.73;;;6.33;;
11893;SDS011;6006;49.696;8.662;2022-12-18T07:18:41;11.73;;;5.37;;
11893;SDS011;6006;49.696;8.662;2022-12-18T07:21:09;13.47;;;7.43;;
11893;SDS011;6006;49.696;8.662;2022-12-18T07:23:37;8.60;;;5.07;;
11893;SDS011;6006;49.696;8.662;2022-12-18T07:26:04;14.10;;;7.03;;
11893;SDS011;6006;49.696;8.662;2022-12-18T07:28:35;10.00;;;6.30;;
11893;SDS011;6006;49.696;8.662;2022-12-18T07:31:03;14.20;;;6.73;;
11893;SDS011;6006;49.696;8.662;2022-12-18T07:33:31;11.03;;;6.57;;
11893;SDS011;6006;49.696;8.662;2022-12-18T07:35:58;14.77;;;8.03;;
11893;SDS011;6006;49.696;8.662;2022-12-18T07:38:25;14.40;;;7.90;;
11893;SDS011;6006;49.696;8.662;2022-12-18T07:40:52;14.13;;;9.07;;
11893;SDS011;6006;49.696;8.662;2022-12-18T07:43:19;15.00;;;9.50;;
11893;SDS011;6006;49.696;8.662;2022-12-18T07:45:49;11.73;;;8.07;;
11893;SDS011;6006;49.696;8.662;2022-12-18T07:48:16;13.87;;;8.27;;
11893;SDS011;6006;49.696;8.662;2022-12-18T07:50:43;15.07;;;9.10;;
11893;SDS011;6006;49.696;8.662;2022-12-18T07:53:10;12.70;;;8.37;;
11893;SDS011;6006;49.696;8.662;2022-12-18T07:55:37;15.90;;;9.00;;
11893;SDS011;6006;49.696;8.662;2022-12-18T07:58:04;17.90;;;9.00;;
11893;SDS011;6006;49.696;8.662;2022-12-18T08:00:31;12.97;;;7.63;;
11893;SDS011;6006;49.696;8.662;2022-12-18T08:03:00;13.67;;;8.20;;
11893;SDS011;6006;49.696;8.662;2022-12-18T08:05:27;15.43;;;9.40;;
11893;SDS011;6006;49.696;8.662;2022-12-18T08:07:54;14.47;;;8.77;;
11893;SDS011;6006;49.696;8.662;2022-12-18T08:10:21;17.03;;;9.80;;
11893;SDS011;6006;49.696;8.662;2022-12-18T08:12:49;12.83;;;8.63;;
11893;SDS011;6006;49.696;8.662;2022-12-18T08:15:16;13.70;;;8.47;;
11893;SDS011;6006;49.696;8.662;2022-12-18T08:17:43;11.00;;;8.10;;
11893;SDS011;6006;49.696;8.662;2022-12-18T08:20:12;13.87;;;8.60;;
11893;SDS011;6006;49.696;8.662;2022-12-18T08:22:40;16.43;;;8.67;;
11893;SDS011;6006;49.696;8.662;2022-12-18T08:25:07;14.83;;;8.83;;
11893;SDS011;6006;49.696;8.662;2022-12-18T08:27:35;15.70;;;9.43;;
11893;SDS011;6006;49.696;8.662;2022-12-18T08:30:02;12.07;;;8.67;;
11893;SDS011;6006;49.696;8.662;2022-12-18T08:32:30;17.63;;;9.33;;
11893;SDS011;6006;49.696;8.662;2022-12-18T08:34:58;15.17;;;9.13;;
11893;SDS011;6006;49.696;8.662;2022-12-18T08:37:26;18.17;;;9.93;;
11893;SDS011;6006;49.696;8.662;2022-12-18T08:39:53;15.17;;;8.77;;
11893;SDS011;6006;49.696;8.662;2022-12-18T08:42:20;14.27;;;9.13;;
11893;SDS011;6006;49.696;8.662;2022-12-18T08:45:05;13.13;;;7.63;;
11893;SDS011;6006;49.696;8.662;2022-12-18T08:47:32;13.10;;;7.80;;
11893;SDS011;6006;49.696;8.662;2022-12-18T08:50:00;13.33;;;7.57;;
11893;SDS011;6006;49.696;8.662;2022-12-18T08:52:28;11.83;;;7.10;;
11893;SDS011;6006;49.696;8.662;2022-12-18T08:54:57;14.23;;;7.83;;
11893;SDS011;6006;49.696;8.662;2022-12-18T08:57:24;12.13;;;7.33;;
11893;SDS011;6006;49.696;8.662;2022-12-18T08:59:51;11.10;;;7.23;;
11893;SDS011;6006;49.696;8.662;2022-12-18T09:02:18;15.07;;;8.00;;
11893;SDS011;6006;49.696;8.662;2022-12-18T09:04:46;13.57;;;8.53;;
11893;SDS011;6006;49.696;8.662;2022-12-18T09:07:13;14.67;;;8.83;;
11893;SDS011;6006;49.696;8.662;2022-12-18T09:09:42;19.27;;;10.70;;
11893;SDS011;6006;49.696;8.662;2022-12-18T09:12:09;14.10;;;9.03;;
11893;SDS011;6006;49.696;8.662;2022-12-18T09:14:35;12.13;;;7.33;;
11893;SDS011;6006;49.696;8.662;2022-12-18T09:17:02;12.00;;;7.93;;
11893;SDS011;6006;49.696;8.662;2022-12-18T09:19:30;13.23;;;7.30;;
11893;SDS011;6006;49.696;8.662;2022-12-18T09:21:57;13.00;;;8.40;;
11893;SDS011;6006;49.696;8.662;2022-12-18T09:24:24;15.70;;;8.03;;
11893;SDS011;6006;49.696;8.662;2022-12-18T09:26:53;15.97;;;9.17;;
11893;SDS011;6006;49.696;8.662;2022-12-18T09:29:20;16.43;;;9.43;;
11893;SDS011;6006;49.696;8.662;2022-12-18T09:31:47;15.10;;;8.43;;
11893;SDS011;6006;49.696;8.662;2022-12-18T09:34:15;15.07;;;10.23;;
11893;SDS011;6006;49.696;8.662;2022-12-18T09:36:43;16.43;;;10.27;;
11893;SDS011;6006;49.696;8.662;2022-12-18T09:39:10;13.90;;;8.87;;
11893;SDS011;6006;49.696;8.662;2022-12-18T09:41:44;16.43;;;9.20;;
11893;SDS011;6006;49.696;8.662;2022-12-18T09:44:22;15.77;;;9.57;;
11893;SDS011;6006;49.696;8.662;2022-12-18T09:46:53;16.03;;;9.73;;
11893;SDS011;6006;49.696;8.662;2022-12-18T09:49:29;19.40;;;10.33;;
11893;SDS011;6006;49.696;8.662;2022-12-18T09:52:02;16.60;;;10.47;;
11893;SDS011;6006;49.696;8.662;2022-12-18T09:54:33;17.77;;;11.07;;
11893;SDS011;6006;49.696;8.662;2022-12-18T09:57:13;15.83;;;10.50;;
11893;SDS011;6006;49.696;8.662;2022-12-18T09:59:43;16.33;;;10.97;;
11893;SDS011;6006;49.696;8.662;2022-12-18T10:02:16;18.90;;;11.07;;
11893;SDS011;6006;49.696;8.662;2022-12-18T10:04:48;17.50;;;11.87;;
11893;SDS011;6006;49.696;8.662;2022-12-18T10:07:22;17.97;;;11.27;;
11893;SDS011;6006;49.696;8.662;2022-12-18T10:09:57;21.33;;;11.27;;
11893;SDS011;6006;49.696;8.662;2022-12-18T10:12:30;17.67;;;10.63;;
11893;SDS011;6006;49.696;8.662;2022-12-18T10:15:05;20.33;;;12.27;;
11893;SDS011;6006;49.696;8.662;2022-12-18T10:17:39;19.23;;;11.73;;
11893;SDS011;6006;49.696;8.662;2022-12-18T10:20:11;22.97;;;11.67;;
11893;SDS011;6006;49.696;8.662;2022-12-18T10:22:44;17.30;;;11.20;;
11893;SDS011;6006;49.696;8.662;2022-12-18T10:25:20;16.33;;;11.17;;
11893;SDS011;6006;49.696;8.662;2022-12-18T10:27:51;19.33;;;11.87;;
11893;SDS011;6006;49.696;8.662;2022-12-18T10:30:23;15.47;;;10.97;;
11893;SDS011;6006;49.696;8.662;2022-12-18T10:32:51;20.00;;;11.30;;
11893;SDS011;6006;49.696;8.662;2022-12-18T10:35:19;19.63;;;12.20;;
11893;SDS011;6006;49.696;8.662;2022-12-18T10:38:01;19.93;;;11.67;;
11893;SDS011;6006;49.696;8.662;2022-12-18T10:40:30;19.13;;;11.43;;
11893;SDS011;6006;49.696;8.662;2022-12-18T10:43:04;20.37;;;11.70;;
11893;SDS011;6006;49.696;8.662;2022-12-18T10:45:33;19.23;;;11.87;;
11893;SDS011;6006;49.696;8.662;2022-12-18T10:48:00;24.47;;;11.80;;
11893;SDS011;6006;49.696;8.662;2022-12-18T10:50:28;21.90;;;13.03;;
11893;SDS011;6006;49.696;8.662;2022-12-18T10:52:58;24.10;;;13.57;;
11893;SDS011;6006;49.696;8.662;2022-12-18T10:55:27;21.03;;;13.13;;
11893;SDS011;6006;49.696;8.662;2022-12-18T10:58:12;26.27;;;14.03;;
11893;SDS011;6006;49.696;8.662;2022-12-18T11:00:45;20.53;;;13.07;;
11893;SDS011;6006;49.696;8.662;2022-12-18T11:03:30;22.80;;;12.63;;
11893;SDS011;6006;49.696;8.662;2022-12-18T11:06:02;23.63;;;14.77;;
11893;SDS011;6006;49.696;8.662;2022-12-18T11:08:31;19.33;;;13.83;;
11893;SDS011;6006;49.696;8.662;2022-12-18T11:10:58;23.03;;;14.53;;
11893;SDS011;6006;49.696;8.662;2022-12-18T11:13:25;21.17;;;13.77;;
11893;SDS011;6006;49.696;8.662;2022-12-18T11:15:55;22.63;;;14.83;;
11893;SDS011;6006;49.696;8.662;2022-12-18T11:18:25;27.57;;;15.33;;
11893;SDS011;6006;49.696;8.662;2022-12-18T11:20:54;22.70;;;13.83;;
11893;SDS011;6006;49.696;8.662;2022-12-18T11:23:23;26.67;;;15.23;;
11893;SDS011;6006;49.696;8.662;2022-12-18T11:25:52;23.97;;;14.90;;
11893;SDS011;6006;49.696;8.662;2022-12-18T11:28:25;24.83;;;14.03;;
11893;SDS011;6006;49.696;8.662;2022-12-18T11:31:20;23.53;;;13.77;;
11893;SDS011;6006;49.696;8.662;2022-12-18T11:33:51;26.97;;;14.00;;
11893;SDS011;6006;49.696;8.662;2022-12-18T11:36:22;23.10;;;14.43;;
11893;SDS011;6006;49.696;8.662;2022-12-18T11:38:52;26.93;;;15.70;;
11893;SDS011;6006;49.696;8.662;2022-12-18T11:41:23;24.47;;;14.83;;
11893;SDS011;6006;49.696;8.662;2022-12-18T11:44:15;25.10;;;14.10;;
11893;SDS011;6006;49.696;8.662;2022-12-18T11:46:51;23.80;;;14.93;;
11893;SDS011;6006;49.696;8.662;2022-12-18T11:49:22;25.97;;;15.93;;
11893;SDS011;6006;49.696;8.662;2022-12-18T11:51:54;29.60;;;15.70;;
11893;SDS011;6006;49.696;8.662;2022-12-18T11:54:24;30.63;;;16.87;;
11893;SDS011;6006;49.696;8.662;2022-12-18T11:56:53;25.33;;;15.13;;
11893;SDS011;6006;49.696;8.662;2022-12-18T11:59:26;26.27;;;14.80;;
11893;SDS011;6006;49.696;8.662;2022-12-18T12:02:02;24.97;;;13.83;;
11893;SDS011;6006;49.696;8.662;2022-12-18T12:04:46;28.57;;;15.43;;
11893;SDS011;6006;49.696;8.662;2022-12-18T12:07:25;27.73;;;15.33;;
11893;SDS011;6006;49.696;8.662;2022-12-18T12:10:03;25.23;;;15.20;;
11893;SDS011;6006;49.696;8.662;2022-12-18T12:12:43;24.50;;;14.60;;
11893;SDS011;6006;49.696;8.662;2022-12-18T12:15:25;24.57;;;13.97;;
11893;SDS011;6006;49.696;8.662;2022-12-18T12:18:03;26.73;;;14.37;;
11893;SDS011;6006;49.696;8.662;2022-12-18T12:20:42;25.37;;;13.93;;
11893;SDS011;6006;49.696;8.662;2022-12-18T12:23:20;27.13;;;14.13;;
11893;SDS011;6006;49.696;8.662;2022-12-18T12:25:56;23.43;;;14.93;;
11893;SDS011;6006;49.696;8.662;2022-12-18T12:28:31;23.80;;;14.10;;
11893;SDS011;6006;49.696;8.662;2022-12-18T12:31:18;26.57;;;14.33;;
11893;SDS011;6006;49.696;8.662;2022-12-18T12:33:55;28.23;;;15.10;;
11893;SDS011;6006;49.696;8.662;2022-12-18T12:36:29;22.70;;;14.23;;
11893;SDS011;6006;49.696;8.662;2022-12-18T12:39:05;25.90;;;14.83;;
11893;SDS011;6006;49.696;8.662;2022-12-18T12:41:37;26.03;;;14.90;;
11893;SDS011;6006;49.696;8.662;2022-12-18T12:44:25;25.90;;;16.43;;
11893;SDS011;6006;49.696;8.662;2022-12-18T12:46:56;25.00;;;14.83;;
11893;SDS011;6006;49.696;8.662;2022-12-18T12:49:29;24.23;;;15.20;;
11893;SDS011;6006;49.696;8.662;2022-12-18T12:52:00;24.77;;;15.43;;
11893;SDS011;6006;49.696;8.662;2022-12-18T12:54:31;25.30;;;14.87;;
11893;SDS011;6006;49.696;8.662;2022-12-18T12:57:02;25.83;;;15.47;;
11893;SDS011;6006;49.696;8.662;2022-12-18T12:59:37;24.10;;;15.13;;
11893;SDS011;6006;49.696;8.662;2022-12-18T13:02:14;27.03;;;14.50;;
11893;SDS011;6006;49.696;8.662;2022-12-18T13:04:52;25.40;;;14.90;;
11893;SDS011;6006;49.696;8.662;2022-12-18T13:07:26;23.53;;;14.27;;
11893;SDS011;6006;49.696;8.662;2022-12-18T13:10:13;24.00;;;14.70;;
11893;SDS011;6006;49.696;8.662;2022-12-18T13:12:53;26.43;;;14.67;;
11893;SDS011;6006;49.696;8.662;2022-12-18T13:15:24;21.53;;;13.77;;
11893;SDS011;6006;49.696;8.662;2022-12-18T13:18:05;24.50;;;14.93;;
11893;SDS011;6006;49.696;8.662;2022-12-18T13:20:44;22.10;;;15.03;;
11893;SDS011;6006;49.696;8.662;2022-12-18T13:25:56;24.87;;;15.63;;
11893;SDS011;6006;49.696;8.662;2022-12-18T13:28:48;23.13;;;14.87;;
11893;SDS011;6006;49.696;8.662;2022-12-18T13:34:25;26.27;;;15.90;;
11893;SDS011;6006;49.696;8.662;2022-12-18T13:36:56;24.43;;;15.00;;
11893;SDS011;6006;49.696;8.662;2022-12-18T13:39:44;27.50;;;15.40;;
11893;SDS011;6006;49.696;8.662;2022-12-18T13:45:37;29.50;;;16.93;;
11893;SDS011;6006;49.696;8.662;2022-12-18T13:48:13;26.60;;;15.70;;
11893;SDS011;6006;49.696;8.662;2022-12-18T13:50:48;22.27;;;14.70;;
11893;SDS011;6006;49.696;8.662;2022-12-18T13:53:20;26.50;;;15.90;;
11893;SDS011;6006;49.696;8.662;2022-12-18T13:55:49;26.13;;;15.83;;
11893;SDS011;6006;49.696;8.662;2022-12-18T13:58:16;25.90;;;15.23;;
11893;SDS011;6006;49.696;8.662;2022-12-18T14:00:43;26.83;;;15.87;;
11893;SDS011;6006;49.696;8.662;2022-12-18T14:03:18;27.60;;;16.10;;
11893;SDS011;6006;49.696;8.662;2022-12-18T14:05:53;25.83;;;16.10;;
11893;SDS011;6006;49.696;8.662;2022-12-18T14:08:32;27.37;;;15.90;;
11893;SDS011;6006;49.696;8.662;2022-12-18T14:11:01;27.87;;;15.37;;
11893;SDS011;6006;49.696;8.662;2022-12-18T14:13:31;25.07;;;16.00;;
11893;SDS011;6006;49.696;8.662;2022-12-18T14:16:01;27.20;;;15.60;;
11893;SDS011;6006;49.696;8.662;2022-12-18T14:18:32;27.40;;;17.60;;
11893;SDS011;6006;49.696;8.662;2022-12-18T14:21:05;27.43;;;15.83;;
11893;SDS011;6006;49.696;8.662;2022-12-18T14:23:36;25.63;;;15.80;;
11893;SDS011;6006;49.696;8.662;2022-12-18T14:26:18;26.53;;;15.70;;
11893;SDS011;6006;49.696;8.662;2022-12-18T14:28:47;26.87;;;15.80;;
11893;SDS011;6006;49.696;8.662;2022-12-18T14:31:18;26.43;;;16.37;;
11893;SDS011;6006;49.696;8.662;2022-12-18T14:33:45;26.33;;;16.07;;
11893;SDS011;6006;49.696;8.662;2022-12-18T14:36:14;28.53;;;16.43;;
11893;SDS011;6006;49.696;8.662;2022-12-18T14:38:47;24.30;;;14.83;;
11893;SDS011;6006;49.696;8.662;2022-12-18T14:41:16;25.60;;;15.63;;
11893;SDS011;6006;49.696;8.662;2022-12-18T14:43:45;26.73;;;15.40;;
11893;SDS011;6006;49.696;8.662;2022-12-18T14:48:57;25.90;;;15.43;;
11893;SDS011;6006;49.696;8.662;2022-12-18T14:51:26;26.57;;;16.50;;
11893;SDS011;6006;49.696;8.662;2022-12-18T14:53:57;28.10;;;16.63;;
11893;SDS011;6006;49.696;8.662;2022-12-18T14:56:27;21.00;;;14.37;;
11893;SDS011;6006;49.696;8.662;2022-12-18T14:58:55;25.57;;;14.13;;
11893;SDS011;6006;49.696;8.662;2022-12-18T15:01:25;26.73;;;15.33;;
11893;SDS011;6006;49.696;8.662;2022-12-18T15:03:54;22.63;;;14.50;;
11893;SDS011;6006;49.696;8.662;2022-12-18T15:06:29;23.77;;;14.20;;
11893;SDS011;6006;49.696;8.662;2022-12-18T15:09:02;22.67;;;13.77;;
11893;SDS011;6006;49.696;8.662;2022-12-18T15:11:35;22.27;;;15.07;;
11893;SDS011;6006;49.696;8.662;2022-12-18T15:17:02;21.00;;;13.07;;
11893;SDS011;6006;49.696;8.662;2022-12-18T15:19:33;22.13;;;13.10;;